Nixa, Missouri
Current Conditions -  °F | °C
As of 4:52 AM on Monday 20 Oct 2014 (Local Time) from KSGF Reporting Station
Overcast Overcast  
Wind Chill: 54°   Ceiling: 9000
Heat Index: 54°   Visibility: 10mi
Dew Point: 51°   Wind: 5mph
Humidity: 90%   Direction: 190°S
Pressure: 30.03"   Gusts: NA
Location:  37.04°N, 93.29°W
Report Text: KSGF 200952Z 19004KT 10SM BKN090 OVC110 12/11 A3003 RMK AO2 SLP163 T01220106
Loading
Personal Weather Stations






























Interactive Weather Map
Tropical Storm Tracking
New forecast layout! Learn more

10-Day Weather Forecast

Advertisements
Track Severe Weather on mobile